createdAt,value
2017-10-15T00:00:22.479Z,10.47
2017-10-15T00:02:50.062Z,12.27
2017-10-15T00:05:17.590Z,11.53
2017-10-15T00:07:45.127Z,10.50
2017-10-15T00:10:12.686Z,14.60
2017-10-15T00:12:40.283Z,11.23
2017-10-15T00:15:07.806Z,13.40
2017-10-15T00:17:35.382Z,13.90
2017-10-15T00:20:02.910Z,13.30
2017-10-15T00:22:30.449Z,13.10
2017-10-15T00:24:58.014Z,16.17
2017-10-15T00:27:25.538Z,12.97
2017-10-15T00:29:53.877Z,13.53
2017-10-15T00:32:21.406Z,14.70
2017-10-15T00:34:48.976Z,14.87
2017-10-15T00:37:17.319Z,14.80
2017-10-15T00:39:44.849Z,11.03
2017-10-15T00:42:12.375Z,13.07
2017-10-15T00:44:39.938Z,10.97
2017-10-15T00:47:07.471Z,13.93
2017-10-15T00:49:35.038Z,10.20
2017-10-15T00:52:02.599Z,14.27
2017-10-15T00:54:30.950Z,15.70
2017-10-15T00:56:58.477Z,14.23
2017-10-15T00:59:26.002Z,9.03
2017-10-15T01:01:53.587Z,14.00
2017-10-15T01:04:21.892Z,10.47
2017-10-15T01:06:49.423Z,10.90
2017-10-15T01:09:16.981Z,17.40
2017-10-15T01:11:44.550Z,15.70
2017-10-15T01:14:12.081Z,12.63
2017-10-15T01:16:39.606Z,13.53
2017-10-15T01:19:07.170Z,13.67
2017-10-15T01:21:34.703Z,18.03
2017-10-15T01:24:02.241Z,12.47
2017-10-15T01:26:29.808Z,16.57
2017-10-15T01:28:57.334Z,15.20
2017-10-15T01:31:24.891Z,12.53
2017-10-15T01:33:52.443Z,12.80
2017-10-15T01:36:19.998Z,12.00
2017-10-15T01:38:47.527Z,19.73
2017-10-15T01:41:15.050Z,13.90
2017-10-15T01:43:42.616Z,11.73
2017-10-15T01:46:10.146Z,17.37
2017-10-15T01:48:37.703Z,14.47
2017-10-15T01:51:05.266Z,10.03
2017-10-15T01:53:32.794Z,10.40
2017-10-15T01:56:00.321Z,15.43
2017-10-15T01:58:27.889Z,8.80
2017-10-15T02:00:55.414Z,9.87
2017-10-15T02:03:22.947Z,15.87
2017-10-15T02:05:50.507Z,13.00
2017-10-15T02:08:18.046Z,11.00
2017-10-15T02:10:45.602Z,14.70
2017-10-15T02:13:13.178Z,10.10
2017-10-15T02:15:40.750Z,11.33
2017-10-15T02:18:08.278Z,11.90
2017-10-15T02:20:36.567Z,13.23
2017-10-15T02:23:04.152Z,11.57
2017-10-15T02:25:31.687Z,14.10
2017-10-15T02:27:59.246Z,11.70
2017-10-15T02:30:26.773Z,11.70
2017-10-15T02:32:54.342Z,9.07
2017-10-15T02:35:21.874Z,11.20
2017-10-15T02:37:49.400Z,9.53
2017-10-15T02:40:16.953Z,11.93
2017-10-15T02:42:44.513Z,10.80
2017-10-15T02:45:12.046Z,10.93
2017-10-15T02:47:39.610Z,30.13
2017-10-15T02:50:07.138Z,16.37
2017-10-15T02:52:34.698Z,13.60
2017-10-15T02:55:02.256Z,13.90
2017-10-15T02:57:30.575Z,16.53
2017-10-15T02:59:58.102Z,14.33
2017-10-15T03:02:25.667Z,16.30
2017-10-15T03:04:53.230Z,14.30
2017-10-15T03:07:20.758Z,15.40
2017-10-15T03:09:48.321Z,19.73
2017-10-15T03:12:15.864Z,22.10
2017-10-15T03:14:43.429Z,15.93
2017-10-15T03:17:11.715Z,11.90
2017-10-15T03:19:39.253Z,13.23
2017-10-15T03:22:06.817Z,21.13
2017-10-15T03:24:34.342Z,12.70
2017-10-15T03:27:01.898Z,14.93
2017-10-15T03:29:29.422Z,13.43
2017-10-15T03:31:57.033Z,14.53
2017-10-15T03:34:24.561Z,14.07
2017-10-15T03:36:52.138Z,12.67
2017-10-15T03:39:20.438Z,11.97
2017-10-15T03:41:47.963Z,14.27
2017-10-15T03:44:15.527Z,13.33
2017-10-15T03:46:43.055Z,13.10
2017-10-15T03:49:10.621Z,12.03
2017-10-15T03:51:38.142Z,12.60
2017-10-15T03:54:05.696Z,13.90
2017-10-15T03:56:33.222Z,11.77
2017-10-15T03:59:01.558Z,14.40
2017-10-15T04:01:29.095Z,15.00
2017-10-15T04:03:56.629Z,12.47
2017-10-15T04:06:24.209Z,11.40
2017-10-15T04:08:52.507Z,13.50
2017-10-15T04:11:20.042Z,11.90
2017-10-15T04:13:47.614Z,13.83
2017-10-15T04:16:15.186Z,17.50
2017-10-15T04:18:42.719Z,13.30
2017-10-15T04:21:10.246Z,11.97
2017-10-15T04:23:37.805Z,11.80
2017-10-15T04:26:05.343Z,12.10
2017-10-15T04:28:32.902Z,14.37
2017-10-15T04:31:00.430Z,16.00
2017-10-15T04:33:28.002Z,21.93
2017-10-15T04:35:55.527Z,11.70
2017-10-15T04:38:23.056Z,12.60
2017-10-15T04:40:50.627Z,11.57
2017-10-15T04:43:18.150Z,9.80
2017-10-15T04:45:45.680Z,15.13
2017-10-15T04:48:13.255Z,11.87
2017-10-15T04:50:40.783Z,11.47
2017-10-15T04:53:08.315Z,8.97
2017-10-15T04:55:36.681Z,10.63
2017-10-15T04:58:04.235Z,10.83
2017-10-15T05:00:31.763Z,9.47
2017-10-15T05:03:00.083Z,8.90
2017-10-15T05:05:28.398Z,9.77
2017-10-15T05:07:55.975Z,10.60
2017-10-15T05:10:23.500Z,10.40
2017-10-15T05:12:51.021Z,9.40
2017-10-15T05:15:18.582Z,9.30
2017-10-15T05:17:46.106Z,10.57
2017-10-15T05:20:13.633Z,10.30
2017-10-15T05:22:41.192Z,11.73
2017-10-15T05:25:09.488Z,8.20
2017-10-15T05:27:37.059Z,12.83
2017-10-15T05:30:05.352Z,7.60
2017-10-15T05:32:32.870Z,8.23
2017-10-15T05:35:00.499Z,9.20
2017-10-15T05:37:28.830Z,10.90
2017-10-15T05:39:56.359Z,10.33
2017-10-15T05:42:23.884Z,8.77
2017-10-15T05:44:51.463Z,11.27
2017-10-15T05:47:18.991Z,7.80
2017-10-15T05:49:46.555Z,8.93
2017-10-15T05:52:14.079Z,8.57
2017-10-15T05:54:41.694Z,12.23
2017-10-15T05:57:09.265Z,12.47
2017-10-15T05:59:36.790Z,10.37
2017-10-15T06:02:04.314Z,9.10
2017-10-15T06:04:32.656Z,9.80
2017-10-15T06:07:00.181Z,8.10
2017-10-15T06:09:27.734Z,10.10
2017-10-15T06:11:55.266Z,10.20
2017-10-15T06:14:22.838Z,6.77
2017-10-15T06:16:51.130Z,8.80
2017-10-15T06:19:18.657Z,12.40
2017-10-15T06:21:46.214Z,8.17
2017-10-15T06:24:13.749Z,9.63
2017-10-15T06:26:41.311Z,6.97
2017-10-15T06:29:08.871Z,9.30
2017-10-15T06:31:36.403Z,10.37
2017-10-15T06:34:03.968Z,19.53
2017-10-15T06:36:31.537Z,8.60
2017-10-15T06:38:59.113Z,9.83
2017-10-15T06:41:26.641Z,9.20
2017-10-15T06:43:54.187Z,11.17
2017-10-15T06:46:22.507Z,9.77
2017-10-15T06:48:50.034Z,9.63
2017-10-15T06:51:17.654Z,10.77
2017-10-15T06:53:45.182Z,11.80
2017-10-15T06:56:13.524Z,7.63
2017-10-15T06:58:41.058Z,11.00
2017-10-15T07:01:08.582Z,12.50
2017-10-15T07:03:36.133Z,8.67
2017-10-15T07:06:03.661Z,11.67
2017-10-15T07:08:31.230Z,18.53
2017-10-15T07:10:59.522Z,12.07
2017-10-15T07:13:27.846Z,11.43
2017-10-15T07:15:55.378Z,9.87
2017-10-15T07:18:22.939Z,10.97
2017-10-15T07:20:50.471Z,14.70
2017-10-15T07:23:18.063Z,11.37
2017-10-15T07:25:46.362Z,11.90
2017-10-15T07:28:13.902Z,10.23
2017-10-15T07:30:41.486Z,12.47
2017-10-15T07:33:09.018Z,15.00
2017-10-15T07:35:36.586Z,17.00
2017-10-15T07:38:04.155Z,17.30
2017-10-15T07:40:31.712Z,15.10
2017-10-15T07:42:59.298Z,18.57
2017-10-15T07:45:26.839Z,16.43
2017-10-15T07:47:54.366Z,13.80
2017-10-15T07:50:21.930Z,15.50
2017-10-15T07:52:49.467Z,16.70
2017-10-15T07:55:17.035Z,25.53
2017-10-15T07:57:44.570Z,15.43
2017-10-15T08:00:12.141Z,16.87
2017-10-15T08:02:39.702Z,16.83
2017-10-15T08:05:08.025Z,20.20
2017-10-15T08:07:35.586Z,19.80
2017-10-15T08:10:03.114Z,20.00
2017-10-15T08:12:30.690Z,15.17
2017-10-15T08:14:59.022Z,19.70
2017-10-15T08:17:26.564Z,15.03
2017-10-15T08:19:54.138Z,17.77
2017-10-15T08:22:22.430Z,17.03
2017-10-15T08:24:49.973Z,14.50
2017-10-15T08:27:17.553Z,14.97
2017-10-15T08:29:45.083Z,16.80
2017-10-15T08:32:12.675Z,18.20
2017-10-15T08:34:40.987Z,14.57
2017-10-15T08:37:08.550Z,15.83
2017-10-15T08:39:36.106Z,16.97
2017-10-15T08:42:03.699Z,12.70
2017-10-15T08:44:31.237Z,9.70
2017-10-15T08:46:58.824Z,8.20
2017-10-15T08:49:26.456Z,11.00
2017-10-15T08:51:54.798Z,15.93
2017-10-15T08:54:22.595Z,14.47
2017-10-15T08:56:50.960Z,12.37
2017-10-15T08:59:18.494Z,11.30
2017-10-15T09:01:46.069Z,12.73
2017-10-15T09:04:14.407Z,10.00
2017-10-15T09:06:41.963Z,13.80
2017-10-15T09:09:09.543Z,11.30
2017-10-15T09:11:37.073Z,8.30
2017-10-15T09:14:05.358Z,11.27
2017-10-15T09:16:32.928Z,8.63
2017-10-15T09:19:00.446Z,7.70
2017-10-15T09:21:27.980Z,7.90
2017-10-15T09:23:55.560Z,8.37
2017-10-15T09:26:23.087Z,7.17
2017-10-15T09:28:50.652Z,8.37
2017-10-15T09:31:18.195Z,10.93
2017-10-15T09:33:45.766Z,9.60
2017-10-15T09:36:13.291Z,6.97
2017-10-15T09:38:40.849Z,15.73
2017-10-15T09:41:08.370Z,7.83
2017-10-15T09:43:35.948Z,9.97
2017-10-15T09:46:04.260Z,10.00
2017-10-15T09:48:31.818Z,7.17
2017-10-15T09:50:59.377Z,5.73
2017-10-15T09:53:26.914Z,7.53
2017-10-15T09:55:54.471Z,5.60
2017-10-15T09:58:21.994Z,8.60
2017-10-15T10:00:49.558Z,9.40
2017-10-15T10:03:17.102Z,5.97
2017-10-15T10:05:44.658Z,8.57
2017-10-15T10:08:12.194Z,8.03
2017-10-15T10:10:39.756Z,8.43
2017-10-15T10:13:07.322Z,6.07
2017-10-15T10:15:34.895Z,14.40
2017-10-15T10:18:02.438Z,7.13
2017-10-15T10:20:29.994Z,7.60
2017-10-15T10:22:57.526Z,5.47
2017-10-15T10:25:25.082Z,9.70
2017-10-15T10:27:52.606Z,9.53
2017-10-15T10:30:20.179Z,9.23
2017-10-15T10:32:47.710Z,7.80
2017-10-15T10:35:15.242Z,10.23
2017-10-15T10:37:42.807Z,7.87
2017-10-15T10:40:10.422Z,6.87
2017-10-15T10:42:37.943Z,6.57
2017-10-15T10:45:05.482Z,7.90
2017-10-15T10:47:33.813Z,6.10
2017-10-15T10:50:01.330Z,9.40
2017-10-15T10:52:28.906Z,11.83
2017-10-15T10:54:56.439Z,11.97
2017-10-15T10:57:23.962Z,7.67
2017-10-15T10:59:51.526Z,7.67
2017-10-15T11:02:19.090Z,11.40
2017-10-15T11:04:46.668Z,10.30
2017-10-15T11:07:14.204Z,7.83
2017-10-15T11:09:41.739Z,10.53
2017-10-15T11:12:10.065Z,7.70
2017-10-15T11:14:38.359Z,8.07
2017-10-15T11:17:06.690Z,12.40
2017-10-15T11:19:34.210Z,9.17
2017-10-15T11:22:01.739Z,9.53
2017-10-15T11:24:29.300Z,9.40
2017-10-15T11:26:56.825Z,10.20
2017-10-15T11:29:24.410Z,11.47
2017-10-15T11:31:51.953Z,7.37
2017-10-15T11:34:19.491Z,7.10
2017-10-15T11:36:47.051Z,9.13
2017-10-15T11:39:14.595Z,11.30
2017-10-15T11:41:42.154Z,11.03
2017-10-15T11:44:09.727Z,7.00
2017-10-15T11:46:37.260Z,8.97
2017-10-15T11:49:04.815Z,6.73
2017-10-15T11:51:32.379Z,7.57
2017-10-15T11:53:59.904Z,7.00
2017-10-15T11:56:27.470Z,8.10
2017-10-15T11:58:55.024Z,12.70
2017-10-15T12:01:22.614Z,14.70
2017-10-15T12:03:50.918Z,9.93
2017-10-15T12:06:18.455Z,11.67
2017-10-15T12:08:46.038Z,12.80
2017-10-15T12:11:13.578Z,10.43
2017-10-15T12:13:41.180Z,8.03
2017-10-15T12:16:09.517Z,9.73
2017-10-15T12:18:37.094Z,10.40
2017-10-15T12:21:04.661Z,9.27
2017-10-15T12:23:32.206Z,11.67
2017-10-15T12:25:59.776Z,9.13
2017-10-15T12:28:27.306Z,8.80
2017-10-15T12:30:54.834Z,13.90
2017-10-15T12:33:22.403Z,8.20
2017-10-15T12:35:49.950Z,11.20
2017-10-15T12:38:17.548Z,8.40
2017-10-15T12:40:45.105Z,6.27
2017-10-15T12:43:12.769Z,8.27
2017-10-15T12:45:40.344Z,10.77
2017-10-15T12:48:07.892Z,8.77
2017-10-15T12:50:36.217Z,6.60
2017-10-15T12:53:03.770Z,7.50
2017-10-15T12:55:31.297Z,17.17
2017-10-15T12:57:58.867Z,8.27
2017-10-15T13:00:26.398Z,9.50
2017-10-15T13:02:53.954Z,11.10
2017-10-15T13:05:21.527Z,7.37
2017-10-15T13:07:49.822Z,8.60
2017-10-15T13:10:17.350Z,8.80
2017-10-15T13:12:44.907Z,8.10
2017-10-15T13:15:12.433Z,8.53
2017-10-15T13:20:30.957Z,10.20
2017-10-15T13:22:58.525Z,6.77
2017-10-15T13:25:26.078Z,8.27
2017-10-15T13:27:53.612Z,10.43
2017-10-15T13:30:21.183Z,9.00
2017-10-15T13:35:39.338Z,9.70
2017-10-15T13:38:06.860Z,8.40
2017-10-15T13:40:34.429Z,10.00
2017-10-15T13:43:01.962Z,7.63
2017-10-15T13:45:29.498Z,9.13
2017-10-15T13:47:57.079Z,10.63
2017-10-15T13:50:25.370Z,9.17
2017-10-15T13:52:52.936Z,10.60
2017-10-15T13:55:20.495Z,9.43
2017-10-15T13:57:48.016Z,8.83
2017-10-15T14:00:15.590Z,10.63
2017-10-15T14:02:43.138Z,11.23
2017-10-15T14:05:10.707Z,10.60
2017-10-15T14:07:39.070Z,7.50
2017-10-15T14:10:07.363Z,11.70
2017-10-15T14:12:34.935Z,9.97
2017-10-15T14:15:02.498Z,17.60
2017-10-15T14:17:30.027Z,8.90
2017-10-15T14:19:57.586Z,10.57
2017-10-15T14:22:25.179Z,8.43
2017-10-15T14:24:52.707Z,9.37
2017-10-15T14:27:20.234Z,17.37
2017-10-15T14:29:48.571Z,13.17
2017-10-15T14:32:16.146Z,9.00
2017-10-15T14:34:43.686Z,15.27
2017-10-15T14:37:12.027Z,13.80
2017-10-15T14:39:39.553Z,17.17
2017-10-15T14:42:07.110Z,13.07
2017-10-15T14:44:34.639Z,8.73
2017-10-15T14:47:02.208Z,12.27
2017-10-15T14:49:29.780Z,7.43
2017-10-15T14:51:57.320Z,11.27
2017-10-15T14:54:25.614Z,11.50
2017-10-15T14:56:53.172Z,8.43
2017-10-15T14:59:20.698Z,8.87
2017-10-15T15:01:48.315Z,11.20
2017-10-15T15:04:16.615Z,13.80
2017-10-15T15:06:44.151Z,12.63
2017-10-15T15:09:11.715Z,11.20
2017-10-15T15:11:39.282Z,9.97
2017-10-15T15:14:06.800Z,9.60
2017-10-15T15:16:34.366Z,12.60
2017-10-15T15:19:01.945Z,10.00
2017-10-15T15:21:30.238Z,9.73
2017-10-15T15:23:57.770Z,14.20
2017-10-15T15:26:25.346Z,8.93
2017-10-15T15:28:52.870Z,10.73
2017-10-15T15:31:20.402Z,9.93
2017-10-15T15:33:47.957Z,9.93
2017-10-15T15:36:15.518Z,12.57
2017-10-15T15:38:43.115Z,10.30
2017-10-15T15:41:11.422Z,9.40
2017-10-15T15:43:38.961Z,12.07
2017-10-15T15:46:06.542Z,10.00
2017-10-15T15:48:34.986Z,15.80
2017-10-15T15:51:02.514Z,12.43
2017-10-15T15:53:30.109Z,13.83
2017-10-15T15:55:58.423Z,14.60
2017-10-15T15:58:25.972Z,12.13
2017-10-15T16:00:53.536Z,9.00
2017-10-15T16:03:21.074Z,14.17
2017-10-15T16:05:48.609Z,22.20
2017-10-15T16:08:16.191Z,14.27
2017-10-15T16:10:44.504Z,11.27
2017-10-15T16:13:12.079Z,19.40
2017-10-15T16:15:39.638Z,17.47
2017-10-15T16:18:07.938Z,16.90
2017-10-15T16:20:35.517Z,12.73
2017-10-15T16:23:03.090Z,13.10
2017-10-15T16:25:31.382Z,15.00
2017-10-15T16:27:58.962Z,12.60
2017-10-15T16:30:26.497Z,9.73
2017-10-15T16:32:54.029Z,15.23
2017-10-15T16:35:21.606Z,14.27
2017-10-15T16:37:49.139Z,17.80
2017-10-15T16:40:16.722Z,14.53
2017-10-15T16:42:45.031Z,17.30
2017-10-15T16:45:12.602Z,13.10
2017-10-15T16:47:40.182Z,14.17
2017-10-15T16:50:08.479Z,14.33
2017-10-15T16:52:36.013Z,15.50
2017-10-15T16:55:03.585Z,15.20
2017-10-15T16:57:31.122Z,14.57
2017-10-15T16:59:58.714Z,15.50
2017-10-15T17:02:27.023Z,11.73
2017-10-15T17:04:54.573Z,10.47
2017-10-15T17:07:22.146Z,14.90
2017-10-15T17:09:49.710Z,19.57
2017-10-15T17:12:18.086Z,12.47
2017-10-15T17:14:45.617Z,19.33
2017-10-15T17:17:13.925Z,39.80
2017-10-15T17:19:41.511Z,19.40
2017-10-15T17:22:09.050Z,15.20
2017-10-15T17:24:36.583Z,17.67
2017-10-15T17:27:04.160Z,14.30
2017-10-15T17:29:32.466Z,15.57
2017-10-15T17:32:00.054Z,13.10
2017-10-15T17:34:29.324Z,17.97
2017-10-15T17:36:56.866Z,13.13
2017-10-15T17:39:24.470Z,17.20
2017-10-15T17:41:53.077Z,19.60
2017-10-15T17:44:20.795Z,22.63
2017-10-15T17:46:48.380Z,14.67
2017-10-15T17:49:15.938Z,19.80
2017-10-15T17:51:43.544Z,23.97
2017-10-15T17:54:11.132Z,16.17
2017-10-15T17:56:44.464Z,20.20
2017-10-15T17:59:13.005Z,18.87
2017-10-15T18:01:40.546Z,22.57
2017-10-15T18:04:08.871Z,15.27
2017-10-15T18:06:36.922Z,25.37
2017-10-15T18:09:04.455Z,17.67
2017-10-15T18:11:31.987Z,28.03
2017-10-15T18:13:59.566Z,20.37
2017-10-15T18:16:27.861Z,22.77
2017-10-15T18:18:55.393Z,24.73
2017-10-15T18:21:22.990Z,19.50
2017-10-15T18:23:50.619Z,22.77
2017-10-15T18:26:18.187Z,24.20
2017-10-15T18:28:45.747Z,21.60
2017-10-15T18:31:13.278Z,18.33
2017-10-15T18:33:40.854Z,14.60
2017-10-15T18:36:08.390Z,18.90
2017-10-15T18:38:35.919Z,19.03
2017-10-15T18:41:03.485Z,16.53
2017-10-15T18:43:31.843Z,14.30
2017-10-15T18:46:00.178Z,14.13
2017-10-15T18:48:30.632Z,14.77
2017-10-15T18:50:58.227Z,14.87
2017-10-15T18:53:25.818Z,14.97
2017-10-15T18:55:53.374Z,16.03
2017-10-15T18:58:20.924Z,13.70
2017-10-15T19:00:48.498Z,18.83
2017-10-15T19:03:16.800Z,18.17
2017-10-15T19:05:45.171Z,17.50
2017-10-15T19:08:12.718Z,16.30
2017-10-15T19:10:40.784Z,18.87
2017-10-15T19:13:08.382Z,18.93
2017-10-15T19:15:35.954Z,14.97
2017-10-15T19:18:03.524Z,13.77
2017-10-15T19:20:31.251Z,15.20
2017-10-15T19:22:58.779Z,18.20
2017-10-15T19:25:26.354Z,16.80
2017-10-15T19:27:53.928Z,15.07
2017-10-15T19:30:21.510Z,15.37
2017-10-15T19:32:49.040Z,17.17
2017-10-15T19:35:16.583Z,15.60
2017-10-15T19:37:44.162Z,17.63
2017-10-15T19:40:11.703Z,16.47
2017-10-15T19:42:40.067Z,16.83
2017-10-15T19:45:08.406Z,15.90
2017-10-15T19:47:35.936Z,13.60
2017-10-15T19:50:03.496Z,17.30
2017-10-15T19:52:31.041Z,13.70
2017-10-15T19:54:58.632Z,15.37
2017-10-15T19:57:26.179Z,16.70
2017-10-15T19:59:54.489Z,15.90
2017-10-15T20:02:22.068Z,16.23
2017-10-15T20:04:49.654Z,15.20
2017-10-15T20:07:17.182Z,18.13
2017-10-15T20:09:46.613Z,14.67
2017-10-15T20:12:14.175Z,18.20
2017-10-15T20:14:41.743Z,19.17
2017-10-15T20:17:09.327Z,16.53
2017-10-15T20:19:36.914Z,16.93
2017-10-15T20:22:04.523Z,18.00
2017-10-15T20:24:32.138Z,16.30
2017-10-15T20:26:59.696Z,20.77
2017-10-15T20:29:27.246Z,18.20
2017-10-15T20:31:54.810Z,19.00
2017-10-15T20:34:22.375Z,21.63
2017-10-15T20:36:50.726Z,20.07
2017-10-15T20:39:18.283Z,17.63
2017-10-15T20:41:46.582Z,19.50
2017-10-15T20:44:14.146Z,22.23
2017-10-15T20:46:42.520Z,17.37
2017-10-15T20:49:10.051Z,20.03
2017-10-15T20:51:37.612Z,17.97
2017-10-15T20:54:05.210Z,18.87
2017-10-15T20:56:32.745Z,20.83
2017-10-15T20:59:02.515Z,22.00
2017-10-15T21:01:30.055Z,27.43
2017-10-15T21:03:57.820Z,24.73
2017-10-15T21:06:26.151Z,18.63
2017-10-15T21:08:53.766Z,23.13
2017-10-15T21:11:21.354Z,21.33
2017-10-15T21:13:48.918Z,22.03
2017-10-15T21:16:17.294Z,19.17
2017-10-15T21:18:44.858Z,17.17
2017-10-15T21:21:12.475Z,19.90
2017-10-15T21:23:40.820Z,18.97
2017-10-15T21:26:08.355Z,20.13
2017-10-15T21:28:35.907Z,18.63
2017-10-15T21:31:03.485Z,19.27
2017-10-15T21:33:31.018Z,16.57
2017-10-15T21:35:58.572Z,20.17
2017-10-15T21:38:26.165Z,16.33
2017-10-15T21:40:53.698Z,18.23
2017-10-15T21:43:21.245Z,21.83
2017-10-15T21:45:48.838Z,20.63
2017-10-15T21:48:17.136Z,19.00
2017-10-15T21:50:44.682Z,20.10
2017-10-15T21:53:12.256Z,16.57
2017-10-15T21:55:39.803Z,16.10
2017-10-15T21:58:07.414Z,18.07
2017-10-15T22:00:34.971Z,20.97
2017-10-15T22:03:02.514Z,17.40
2017-10-15T22:05:30.101Z,14.27
2017-10-15T22:07:58.403Z,16.67
2017-10-15T22:10:25.947Z,15.13
2017-10-15T22:12:53.515Z,13.83
2017-10-15T22:15:21.104Z,19.60
2017-10-15T22:17:48.699Z,14.17
2017-10-15T22:20:16.243Z,15.23
2017-10-15T22:25:35.329Z,12.53
2017-10-15T22:28:03.653Z,19.90
2017-10-15T22:30:31.170Z,16.20
2017-10-15T22:32:58.743Z,18.20
2017-10-15T22:35:26.269Z,15.37
2017-10-15T22:37:53.797Z,14.93
2017-10-15T22:40:21.366Z,17.73
2017-10-15T22:42:48.889Z,20.87
2017-10-15T22:45:16.462Z,15.13
2017-10-15T22:47:43.986Z,16.03
2017-10-15T22:50:11.524Z,12.93
2017-10-15T22:52:39.094Z,14.13
2017-10-15T22:55:07.386Z,15.40
2017-10-15T22:57:34.949Z,16.87
2017-10-15T23:00:03.282Z,13.93
2017-10-15T23:02:30.837Z,16.13
2017-10-15T23:04:58.349Z,16.30
2017-10-15T23:07:26.731Z,16.03
2017-10-15T23:09:54.254Z,14.57
2017-10-15T23:12:21.821Z,13.73
2017-10-15T23:14:49.345Z,19.17
2017-10-15T23:17:16.883Z,18.53
2017-10-15T23:19:44.441Z,20.53
2017-10-15T23:22:11.965Z,16.90
2017-10-15T23:24:39.495Z,19.00
2017-10-15T23:27:07.068Z,15.10
2017-10-15T23:29:34.592Z,17.13
2017-10-15T23:32:02.150Z,16.90
2017-10-15T23:34:30.451Z,26.17
2017-10-15T23:36:58.006Z,17.37
2017-10-15T23:39:26.338Z,15.00
2017-10-15T23:41:53.869Z,17.20
2017-10-15T23:44:22.193Z,16.00
2017-10-15T23:46:49.717Z,16.40
2017-10-15T23:49:18.009Z,16.53
2017-10-15T23:51:45.570Z,14.13
2017-10-15T23:54:13.099Z,18.73
2017-10-15T23:56:40.665Z,16.60
2017-10-15T23:59:08.189Z,19.50
